Time;durP1;ratioP1;P1;durP2;ratioP2;P2;SDS_P1;SDS_P2;PMS_P1;PMS_P2;Temp;Humidity;BMP_temperature;BMP_pressure;BME280_temperature;BME280_humidity;BME280_pressure;Samples;Min_cycle;Max_cycle;Signal;HPM_P1;HPM_P2
2022/12/07 00:01:54;;;;;;;22.20;8.68;;;;;;;;;;5094574;28;20056;-76
2022/12/07 00:04:21;;;;;;;15.13;7.38;;;;;;;;;;5087553;28;20755;-76
2022/12/07 00:06:51;;;;;;;13.23;6.72;;;;;;;;;;5089745;28;20052;-76
2022/12/07 00:09:18;;;;;;;14.02;6.75;;;;;;;;;;5088576;28;20080;-76
2022/12/07 00:11:47;;;;;;;13.38;6.80;;;;;;;;;;5087891;28;20052;-76
2022/12/07 00:14:15;;;;;;;16.42;6.72;;;;;;;;;;5089087;28;20056;-76
2022/12/07 00:16:43;;;;;;;14.57;6.97;;;;;;;;;;5094908;28;20519;-76
2022/12/07 00:19:10;;;;;;;17.45;6.45;;;;;;;;;;5086264;28;20064;-76
2022/12/07 00:21:36;;;;;;;18.10;7.13;;;;;;;;;;5088222;28;20052;-76
2022/12/07 00:24:03;;;;;;;12.65;6.35;;;;;;;;;;5085813;28;20109;-76
2022/12/07 00:26:32;;;;;;;14.80;6.65;;;;;;;;;;5091455;28;20052;-76
2022/12/07 00:29:00;;;;;;;16.77;7.30;;;;;;;;;;5097925;28;20048;-76
2022/12/07 00:31:27;;;;;;;16.08;6.07;;;;;;;;;;5093179;28;20555;-77
2022/12/07 00:33:54;;;;;;;14.40;6.28;;;;;;;;;;5082785;28;20158;-76
2022/12/07 00:36:22;;;;;;;14.50;6.38;;;;;;;;;;5092094;28;20467;-76
2022/12/07 00:38:53;;;;;;;14.50;7.00;;;;;;;;;;5086857;28;20067;-76
2022/12/07 00:41:21;;;;;;;16.67;6.90;;;;;;;;;;5101179;28;20055;-76
2022/12/07 00:43:48;;;;;;;13.73;6.30;;;;;;;;;;5084880;28;20908;-76
2022/12/07 00:46:14;;;;;;;15.90;6.13;;;;;;;;;;5092965;28;20055;-76
2022/12/07 00:48:41;;;;;;;16.67;6.50;;;;;;;;;;5090646;27;20056;-76
2022/12/07 00:51:09;;;;;;;14.30;5.97;;;;;;;;;;5086235;28;20115;-76
2022/12/07 00:53:36;;;;;;;17.85;6.53;;;;;;;;;;5086407;28;20059;-76
2022/12/07 00:56:16;;;;;;;16.48;6.50;;;;;;;;;;5089914;28;20526;-76
2022/12/07 00:58:43;;;;;;;14.52;5.93;;;;;;;;;;5086290;28;20055;-76
2022/12/07 01:01:09;;;;;;;12.50;5.88;;;;;;;;;;5084258;28;20143;-76
2022/12/07 01:03:36;;;;;;;16.75;5.80;;;;;;;;;;5086500;28;20052;-76
2022/12/07 01:06:03;;;;;;;17.33;6.10;;;;;;;;;;5085569;28;20048;-76
2022/12/07 01:08:30;;;;;;;13.73;5.55;;;;;;;;;;5087504;28;20052;-76
2022/12/07 01:11:04;;;;;;;14.63;5.20;;;;;;;;;;5086081;28;20158;-76
2022/12/07 01:13:30;;;;;;;14.60;5.55;;;;;;;;;;5086601;28;20048;-76
2022/12/07 01:16:01;;;;;;;11.25;5.28;;;;;;;;;;5086035;28;20044;-76
2022/12/07 01:18:28;;;;;;;11.32;5.03;;;;;;;;;;5089800;28;20051;-76
2022/12/07 01:21:05;;;;;;;14.25;4.68;;;;;;;;;;5106560;28;20056;-76
2022/12/07 01:23:32;;;;;;;10.50;4.60;;;;;;;;;;5105799;28;20052;-76
2022/12/07 01:26:00;;;;;;;11.95;3.80;;;;;;;;;;5104109;27;20204;-76
2022/12/07 01:28:26;;;;;;;11.25;3.92;;;;;;;;;;5093579;28;20054;-76
2022/12/07 01:30:56;;;;;;;8.82;4.22;;;;;;;;;;5104716;28;20499;-76
2022/12/07 01:33:23;;;;;;;11.35;3.75;;;;;;;;;;5071604;28;20117;-76
2022/12/07 01:35:49;;;;;;;15.63;3.92;;;;;;;;;;5104208;28;20056;-76
2022/12/07 01:38:15;;;;;;;10.07;3.83;;;;;;;;;;5109928;27;20066;-76
2022/12/07 01:40:42;;;;;;;10.68;4.22;;;;;;;;;;5108135;28;20568;-76
2022/12/07 01:43:16;;;;;;;11.27;4.53;;;;;;;;;;5105217;28;20056;-76
2022/12/07 01:45:42;;;;;;;16.90;3.55;;;;;;;;;;5089160;28;20110;-76
2022/12/07 01:48:10;;;;;;;12.13;4.07;;;;;;;;;;5089577;28;20512;-76
2022/12/07 01:50:37;;;;;;;8.38;3.65;;;;;;;;;;5089292;28;20053;-76
2022/12/07 01:53:05;;;;;;;12.52;3.65;;;;;;;;;;5076298;28;20529;-76
2022/12/07 01:55:31;;;;;;;15.13;4.13;;;;;;;;;;5109475;28;20048;-76
2022/12/07 01:57:58;;;;;;;10.38;3.58;;;;;;;;;;5109013;28;20578;-76
2022/12/07 02:00:24;;;;;;;9.38;3.67;;;;;;;;;;5104105;28;20142;-76
2022/12/07 02:02:56;;;;;;;11.18;3.67;;;;;;;;;;5093461;28;20060;-76
2022/12/07 02:05:24;;;;;;;13.32;3.88;;;;;;;;;;5099266;28;20212;-76
2022/12/07 02:07:51;;;;;;;10.32;3.65;;;;;;;;;;5109482;28;20044;-76
2022/12/07 02:10:19;;;;;;;10.20;3.75;;;;;;;;;;5088524;28;20508;-76
2022/12/07 02:12:47;;;;;;;15.85;4.22;;;;;;;;;;5088924;28;20056;-76
2022/12/07 02:15:13;;;;;;;10.05;3.60;;;;;;;;;;5088335;28;20407;-77
2022/12/07 02:17:40;;;;;;;11.40;3.30;;;;;;;;;;5089971;28;20052;-76
2022/12/07 02:20:21;;;;;;;12.18;3.70;;;;;;;;;;5071502;28;20503;-76
2022/12/07 02:23:00;;;;;;;11.25;3.75;;;;;;;;;;5071122;28;20045;-76
2022/12/07 02:25:59;;;;;;;11.27;3.47;;;;;;;;;;5108195;27;20502;-76
2022/12/07 02:28:31;;;;;;;11.05;3.65;;;;;;;;;;5020074;28;20053;-76
2022/12/07 02:31:01;;;;;;;11.98;3.20;;;;;;;;;;5108928;28;20565;-77
2022/12/07 02:33:41;;;;;;;10.68;3.53;;;;;;;;;;5108852;27;20058;-76
2022/12/07 02:36:10;;;;;;;8.98;3.30;;;;;;;;;;5104134;28;20243;-76
2022/12/07 02:38:39;;;;;;;10.32;3.67;;;;;;;;;;5107212;28;20056;-76
2022/12/07 02:41:09;;;;;;;11.60;3.58;;;;;;;;;;5106916;28;20142;-76
2022/12/07 02:43:46;;;;;;;11.55;3.70;;;;;;;;;;5093525;27;20049;-76
2022/12/07 02:46:21;;;;;;;11.52;4.38;;;;;;;;;;5088382;28;20056;-76
2022/12/07 02:49:07;;;;;;;10.55;3.92;;;;;;;;;;5070510;28;20076;-76
2022/12/07 02:51:33;;;;;;;11.93;4.55;;;;;;;;;;5087835;28;20495;-76
2022/12/07 02:54:00;;;;;;;8.75;3.00;;;;;;;;;;5087601;28;20055;-76
2022/12/07 02:56:44;;;;;;;10.80;3.42;;;;;;;;;;5070290;28;20080;-76
2022/12/07 02:59:14;;;;;;;13.45;3.10;;;;;;;;;;5087599;28;20137;-76
2022/12/07 03:01:45;;;;;;;9.60;3.15;;;;;;;;;;5087742;28;20057;-76
2022/12/07 03:04:30;;;;;;;14.23;3.50;;;;;;;;;;5103642;28;20083;-76
2022/12/07 03:06:59;;;;;;;20.15;3.33;;;;;;;;;;5108637;28;20055;-76
2022/12/07 03:09:35;;;;;;;11.27;3.22;;;;;;;;;;5093624;28;20064;-76
2022/12/07 03:12:12;;;;;;;9.40;2.90;;;;;;;;;;5087854;28;20486;-76
2022/12/07 03:14:42;;;;;;;9.75;2.85;;;;;;;;;;5085712;28;20515;-76
2022/12/07 03:17:21;;;;;;;11.88;3.80;;;;;;;;;;5086454;28;20044;-76
2022/12/07 03:19:49;;;;;;;8.70;3.00;;;;;;;;;;5087121;28;20140;-76
2022/12/07 03:22:17;;;;;;;18.85;3.88;;;;;;;;;;5087445;28;20052;-76
2022/12/07 03:24:53;;;;;;;10.57;2.83;;;;;;;;;;5087625;28;20056;-77
2022/12/07 03:27:22;;;;;;;8.15;2.60;;;;;;;;;;5069416;28;20092;-76
2022/12/07 03:29:52;;;;;;;10.60;2.85;;;;;;;;;;5088782;28;20056;-76
2022/12/07 03:32:25;;;;;;;8.55;2.47;;;;;;;;;;5087677;28;20056;-76
2022/12/07 03:35:15;;;;;;;12.32;2.53;;;;;;;;;;5086557;28;20538;-76
2022/12/07 03:37:42;;;;;;;9.07;2.78;;;;;;;;;;5087124;28;20571;-76
2022/12/07 03:40:15;;;;;;;9.02;2.97;;;;;;;;;;5102919;28;20520;-76
2022/12/07 03:42:42;;;;;;;7.72;2.58;;;;;;;;;;5098977;28;20064;-76
2022/12/07 03:45:09;;;;;;;8.50;2.65;;;;;;;;;;5087482;28;20052;-76
2022/12/07 03:47:47;;;;;;;11.77;2.67;;;;;;;;;;5087245;28;20499;-76
2022/12/07 03:50:21;;;;;;;10.00;3.20;;;;;;;;;;5069483;28;20052;-76
2022/12/07 03:52:47;;;;;;;12.90;3.33;;;;;;;;;;5088415;28;20532;-76
2022/12/07 03:55:13;;;;;;;12.93;2.80;;;;;;;;;;5087202;28;20238;-76
2022/12/07 03:57:50;;;;;;;10.80;3.03;;;;;;;;;;5087312;28;20056;-76
2022/12/07 04:00:17;;;;;;;13.82;2.72;;;;;;;;;;5099390;28;20135;-76
2022/12/07 04:02:44;;;;;;;8.65;2.25;;;;;;;;;;5087501;28;20499;-76
2022/12/07 04:05:10;;;;;;;9.20;2.70;;;;;;;;;;5086563;28;20049;-76
2022/12/07 04:07:37;;;;;;;8.95;2.45;;;;;;;;;;5098375;28;20056;-76
2022/12/07 04:10:05;;;;;;;8.25;3.30;;;;;;;;;;5107110;28;20048;-76
2022/12/07 04:12:31;;;;;;;11.68;2.42;;;;;;;;;;5107449;28;20058;-76
2022/12/07 04:14:58;;;;;;;11.55;2.28;;;;;;;;;;5107256;28;20098;-76
2022/12/07 04:17:24;;;;;;;8.95;2.17;;;;;;;;;;5102511;28;20074;-76
2022/12/07 04:19:50;;;;;;;10.48;2.30;;;;;;;;;;5098548;27;20054;-76
2022/12/07 04:22:17;;;;;;;9.45;2.42;;;;;;;;;;5086504;28;20570;-76
2022/12/07 04:24:43;;;;;;;5.80;2.00;;;;;;;;;;5092689;28;20048;-76
2022/12/07 04:27:09;;;;;;;8.05;1.55;;;;;;;;;;5087005;28;20591;-76
2022/12/07 04:29:35;;;;;;;13.15;1.80;;;;;;;;;;5096668;28;20052;-76
2022/12/07 04:32:02;;;;;;;7.57;1.70;;;;;;;;;;5086063;28;20063;-76
2022/12/07 04:34:28;;;;;;;11.07;1.90;;;;;;;;;;5099995;28;20087;-76
2022/12/07 04:36:55;;;;;;;5.63;1.50;;;;;;;;;;5106234;28;20083;-76
2022/12/07 04:39:22;;;;;;;8.13;1.88;;;;;;;;;;5106740;28;20048;-76
2022/12/07 04:41:49;;;;;;;8.25;1.33;;;;;;;;;;5097380;28;20829;-76
2022/12/07 04:44:16;;;;;;;11.20;1.88;;;;;;;;;;5085987;28;20597;-76
2022/12/07 04:46:42;;;;;;;7.05;1.55;;;;;;;;;;5068012;28;20523;-76
2022/12/07 04:49:09;;;;;;;6.10;1.73;;;;;;;;;;5086723;28;20495;-76
2022/12/07 04:51:35;;;;;;;5.70;1.58;;;;;;;;;;5101809;28;20055;-76
2022/12/07 04:54:02;;;;;;;9.60;2.10;;;;;;;;;;5104264;28;20063;-76
2022/12/07 04:56:28;;;;;;;15.48;2.45;;;;;;;;;;5090703;28;20057;-76
2022/12/07 04:58:55;;;;;;;10.63;2.15;;;;;;;;;;5086138;28;20049;-76
2022/12/07 05:01:22;;;;;;;6.72;1.90;;;;;;;;;;5087178;28;20049;-76
2022/12/07 05:03:48;;;;;;;13.75;1.90;;;;;;;;;;5096049;28;20048;-76
2022/12/07 05:06:14;;;;;;;4.47;1.48;;;;;;;;;;5108443;27;20067;-76
2022/12/07 05:08:41;;;;;;;5.63;1.42;;;;;;;;;;5098067;28;20138;-76
2022/12/07 05:11:08;;;;;;;5.57;1.30;;;;;;;;;;5089747;28;20423;-76
2022/12/07 05:13:35;;;;;;;6.85;1.20;;;;;;;;;;5089626;28;20148;-76
2022/12/07 05:16:02;;;;;;;5.72;1.30;;;;;;;;;;5088656;28;20056;-76
2022/12/07 05:18:28;;;;;;;5.18;1.17;;;;;;;;;;5089443;28;20523;-77
2022/12/07 05:20:55;;;;;;;8.57;1.70;;;;;;;;;;5089356;28;20057;-78
2022/12/07 05:23:21;;;;;;;6.03;1.60;;;;;;;;;;5089050;28;20144;-77
2022/12/07 05:25:48;;;;;;;10.07;1.50;;;;;;;;;;5088747;28;20071;-77
2022/12/07 05:28:14;;;;;;;6.28;1.48;;;;;;;;;;5090125;28;20151;-77
2022/12/07 05:30:40;;;;;;;8.95;1.40;;;;;;;;;;5104145;28;20063;-76
2022/12/07 05:33:07;;;;;;;5.45;1.30;;;;;;;;;;5101436;28;20048;-77
2022/12/07 05:35:33;;;;;;;7.55;1.20;;;;;;;;;;5108707;27;20307;-77
2022/12/07 05:37:59;;;;;;;8.02;1.00;;;;;;;;;;5089773;28;20059;-77
2022/12/07 05:40:26;;;;;;;4.15;1.00;;;;;;;;;;5089091;28;20051;-77
2022/12/07 05:42:52;;;;;;;7.38;1.15;;;;;;;;;;5070156;28;20052;-77
2022/12/07 05:45:18;;;;;;;9.45;1.25;;;;;;;;;;5089094;28;20055;-76
2022/12/07 05:47:45;;;;;;;7.57;1.98;;;;;;;;;;5089183;28;20507;-76
2022/12/07 05:50:11;;;;;;;6.05;1.70;;;;;;;;;;5088625;28;20044;-77
2022/12/07 05:52:37;;;;;;;7.85;1.80;;;;;;;;;;5088638;28;20052;-76
2022/12/07 05:55:04;;;;;;;8.13;3.28;;;;;;;;;;5108878;28;20495;-76
2022/12/07 05:57:30;;;;;;;9.73;4.43;;;;;;;;;;5107840;27;20548;-76
2022/12/07 05:59:56;;;;;;;10.75;2.85;;;;;;;;;;5089928;28;20059;-76
2022/12/07 06:02:23;;;;;;;6.20;2.13;;;;;;;;;;5097801;28;20097;-76
2022/12/07 06:04:49;;;;;;;8.68;1.80;;;;;;;;;;5092516;28;20052;-77
2022/12/07 06:07:16;;;;;;;7.47;1.50;;;;;;;;;;5097210;28;20066;-77
2022/12/07 06:09:42;;;;;;;10.50;2.20;;;;;;;;;;5090621;28;20091;-77
2022/12/07 06:14:57;;;;;;;13.52;2.30;;;;;;;;;;5098928;28;20061;-77
2022/12/07 06:17:24;;;;;;;5.90;2.35;;;;;;;;;;5102598;28;20080;-77
2022/12/07 06:19:50;;;;;;;12.10;2.45;;;;;;;;;;5094682;28;20063;-77
2022/12/07 06:22:17;;;;;;;9.70;2.47;;;;;;;;;;5088133;28;20060;-77
2022/12/07 06:24:43;;;;;;;9.07;2.70;;;;;;;;;;5070149;28;20056;-77
2022/12/07 06:27:10;;;;;;;11.77;3.00;;;;;;;;;;5108998;27;20052;-77
2022/12/07 06:29:39;;;;;;;9.70;2.75;;;;;;;;;;5081437;28;20154;-77
2022/12/07 06:32:06;;;;;;;9.02;2.72;;;;;;;;;;5087774;28;20049;-77
2022/12/07 06:34:32;;;;;;;12.10;4.00;;;;;;;;;;5087908;28;20807;-76
2022/12/07 06:36:59;;;;;;;6.88;4.03;;;;;;;;;;5088165;28;20330;-77
2022/12/07 06:39:26;;;;;;;15.63;5.50;;;;;;;;;;5087214;28;20063;-76
2022/12/07 06:41:53;;;;;;;10.38;4.97;;;;;;;;;;5099004;28;20051;-76
2022/12/07 06:44:21;;;;;;;13.63;4.38;;;;;;;;;;5105828;28;20553;-76
2022/12/07 06:46:48;;;;;;;12.45;3.90;;;;;;;;;;5071803;28;20131;-76
2022/12/07 06:49:14;;;;;;;10.65;3.60;;;;;;;;;;5088008;28;20049;-76
2022/12/07 06:51:41;;;;;;;8.18;3.83;;;;;;;;;;5087709;28;20057;-76
2022/12/07 06:54:08;;;;;;;15.73;4.15;;;;;;;;;;5092294;28;20139;-76
2022/12/07 06:56:35;;;;;;;9.40;3.40;;;;;;;;;;5103418;28;20123;-76
2022/12/07 06:59:02;;;;;;;11.32;3.65;;;;;;;;;;5089458;28;20052;-76
2022/12/07 07:01:28;;;;;;;8.02;2.90;;;;;;;;;;5069468;28;20072;-76
2022/12/07 07:03:55;;;;;;;9.20;3.50;;;;;;;;;;5087636;28;20560;-77
2022/12/07 07:06:21;;;;;;;11.48;3.17;;;;;;;;;;5085802;28;20141;-76
2022/12/07 07:08:50;;;;;;;10.77;4.05;;;;;;;;;;5095144;28;20067;-76
2022/12/07 07:11:16;;;;;;;12.18;3.20;;;;;;;;;;5087570;28;20088;-76
2022/12/07 07:13:43;;;;;;;12.32;2.95;;;;;;;;;;5068990;28;20122;-76
2022/12/07 07:16:10;;;;;;;9.18;2.85;;;;;;;;;;5087288;28;20060;-76
2022/12/07 07:18:36;;;;;;;12.50;3.70;;;;;;;;;;5105145;28;20052;-76
2022/12/07 07:21:03;;;;;;;7.93;2.58;;;;;;;;;;5106815;28;20087;-76
2022/12/07 07:23:30;;;;;;;13.07;2.72;;;;;;;;;;5100504;28;20400;-76
2022/12/07 07:25:59;;;;;;;7.60;2.00;;;;;;;;;;5094517;28;20058;-76
2022/12/07 07:28:26;;;;;;;8.65;2.30;;;;;;;;;;5102195;27;20548;-76
2022/12/07 07:30:52;;;;;;;7.43;2.28;;;;;;;;;;5081788;28;20144;-76
2022/12/07 07:33:19;;;;;;;8.98;2.50;;;;;;;;;;5087346;28;20131;-77
2022/12/07 07:35:45;;;;;;;8.88;3.10;;;;;;;;;;5075305;28;20045;-77
2022/12/07 07:38:11;;;;;;;9.20;2.92;;;;;;;;;;5100808;28;20057;-76
2022/12/07 07:40:38;;;;;;;12.88;3.17;;;;;;;;;;5094391;28;20059;-76
2022/12/07 07:43:04;;;;;;;14.82;3.45;;;;;;;;;;5105125;28;20533;-76
2022/12/07 07:45:30;;;;;;;9.10;3.35;;;;;;;;;;5089467;28;20058;-77
2022/12/07 07:47:57;;;;;;;10.38;3.50;;;;;;;;;;5086512;28;20077;-76
2022/12/07 07:50:23;;;;;;;8.05;3.03;;;;;;;;;;5107522;28;20052;-76
2022/12/07 07:52:51;;;;;;;12.77;3.38;;;;;;;;;;5106630;28;20525;-76
2022/12/07 07:55:17;;;;;;;10.98;3.35;;;;;;;;;;5094985;28;20060;-76
2022/12/07 07:57:43;;;;;;;9.57;2.70;;;;;;;;;;5092904;28;20067;-76
2022/12/07 08:00:16;;;;;;;9.77;2.75;;;;;;;;;;5087234;28;20518;-76
2022/12/07 08:02:43;;;;;;;10.38;3.42;;;;;;;;;;5096759;28;20048;-76
2022/12/07 08:05:12;;;;;;;12.73;3.17;;;;;;;;;;5106929;28;20083;-77
2022/12/07 08:07:39;;;;;;;10.55;2.70;;;;;;;;;;5090525;28;20146;-76
2022/12/07 08:10:06;;;;;;;9.63;2.80;;;;;;;;;;5104698;28;20044;-77
2022/12/07 08:12:35;;;;;;;13.32;3.30;;;;;;;;;;5101166;27;20059;-77
2022/12/07 08:15:01;;;;;;;13.63;3.10;;;;;;;;;;5087943;28;20636;-77
2022/12/07 08:17:30;;;;;;;14.05;3.70;;;;;;;;;;5071507;28;20052;-77
2022/12/07 08:19:56;;;;;;;16.38;3.92;;;;;;;;;;5105727;28;20168;-77
2022/12/07 08:22:23;;;;;;;7.65;2.78;;;;;;;;;;5095439;28;20049;-77
2022/12/07 08:24:49;;;;;;;8.60;2.63;;;;;;;;;;5089996;28;20060;-76
2022/12/07 08:27:15;;;;;;;9.27;2.28;;;;;;;;;;5096151;28;20064;-76
2022/12/07 08:29:42;;;;;;;8.55;2.65;;;;;;;;;;5088087;28;20052;-77
2022/12/07 08:32:08;;;;;;;11.18;2.47;;;;;;;;;;5085800;28;20588;-77
2022/12/07 08:34:35;;;;;;;8.85;2.35;;;;;;;;;;5097299;28;20067;-77
2022/12/07 08:37:02;;;;;;;8.43;2.50;;;;;;;;;;5088711;28;20147;-77
2022/12/07 08:39:28;;;;;;;7.72;2.20;;;;;;;;;;5094101;28;20504;-77
2022/12/07 08:41:57;;;;;;;8.15;2.10;;;;;;;;;;5108328;28;20056;-76
2022/12/07 08:44:24;;;;;;;8.70;2.00;;;;;;;;;;5110290;27;20063;-76
2022/12/07 08:46:55;;;;;;;7.68;2.28;;;;;;;;;;5101923;28;20059;-77
2022/12/07 08:49:27;;;;;;;6.35;1.88;;;;;;;;;;5097734;28;20052;-76
2022/12/07 08:51:54;;;;;;;8.80;1.65;;;;;;;;;;5098722;28;20052;-77
2022/12/07 08:54:21;;;;;;;10.52;1.88;;;;;;;;;;5101020;28;20083;-77
2022/12/07 08:56:49;;;;;;;14.98;2.15;;;;;;;;;;5092125;28;20479;-77
2022/12/07 08:59:23;;;;;;;14.07;2.40;;;;;;;;;;5093798;28;20060;-77
2022/12/07 09:01:50;;;;;;;13.75;2.38;;;;;;;;;;5088024;28;20423;-77
2022/12/07 09:04:16;;;;;;;9.25;2.00;;;;;;;;;;5087938;28;20392;-77
2022/12/07 09:06:43;;;;;;;8.40;2.30;;;;;;;;;;5088416;28;20550;-77
2022/12/07 09:09:10;;;;;;;11.45;3.30;;;;;;;;;;5092263;28;20151;-77
2022/12/07 09:11:36;;;;;;;7.50;1.98;;;;;;;;;;5089648;28;20515;-77
2022/12/07 09:14:02;;;;;;;7.82;1.73;;;;;;;;;;5106578;28;20062;-77
2022/12/07 09:16:28;;;;;;;5.65;1.70;;;;;;;;;;5104830;27;20056;-77
2022/12/07 09:18:55;;;;;;;11.02;1.75;;;;;;;;;;5076738;28;20045;-77
2022/12/07 09:21:21;;;;;;;9.52;2.05;;;;;;;;;;5089121;28;20060;-77
2022/12/07 09:23:48;;;;;;;5.80;2.00;;;;;;;;;;5104581;28;20056;-77
2022/12/07 09:26:14;;;;;;;14.30;2.35;;;;;;;;;;5102896;28;20122;-77
2022/12/07 09:28:40;;;;;;;11.18;2.00;;;;;;;;;;5085899;28;20048;-77
2022/12/07 09:31:07;;;;;;;10.30;1.92;;;;;;;;;;5103117;28;20083;-77
2022/12/07 09:33:53;;;;;;;8.10;2.00;;;;;;;;;;5077620;28;20061;-77
2022/12/07 09:36:19;;;;;;;7.28;1.77;;;;;;;;;;5088340;28;20083;-77
2022/12/07 09:38:46;;;;;;;9.50;1.98;;;;;;;;;;5087507;28;20057;-77
2022/12/07 09:41:12;;;;;;;9.43;1.88;;;;;;;;;;5090050;28;20561;-76
2022/12/07 09:43:40;;;;;;;11.63;2.28;;;;;;;;;;5078236;28;20057;-76
2022/12/07 09:46:06;;;;;;;9.23;2.15;;;;;;;;;;5097845;28;20062;-76
2022/12/07 09:48:35;;;;;;;8.95;1.85;;;;;;;;;;5087765;28;20060;-76
2022/12/07 09:51:03;;;;;;;8.98;1.88;;;;;;;;;;5087610;28;20507;-76
2022/12/07 09:53:32;;;;;;;9.93;2.15;;;;;;;;;;5088136;28;20063;-76
2022/12/07 09:55:59;;;;;;;6.78;1.55;;;;;;;;;;5093652;28;20940;-76
2022/12/07 09:58:27;;;;;;;7.30;2.03;;;;;;;;;;5087497;28;20744;-76
2022/12/07 10:00:57;;;;;;;4.93;1.63;;;;;;;;;;5096110;28;20047;-76
2022/12/07 10:03:23;;;;;;;10.05;1.77;;;;;;;;;;5088075;27;20590;-76
2022/12/07 10:05:51;;;;;;;7.70;1.90;;;;;;;;;;5070871;28;20686;-76
2022/12/07 10:08:17;;;;;;;6.85;1.70;;;;;;;;;;5100391;28;20056;-77
2022/12/07 10:10:44;;;;;;;5.07;1.40;;;;;;;;;;5088582;28;20057;-76
2022/12/07 10:13:15;;;;;;;6.72;1.90;;;;;;;;;;5094617;28;20503;-77
2022/12/07 10:15:47;;;;;;;10.93;1.75;;;;;;;;;;5079347;28;20859;-76
2022/12/07 10:18:25;;;;;;;4.93;1.40;;;;;;;;;;5097422;27;20060;-76
2022/12/07 10:21:10;;;;;;;9.68;1.60;;;;;;;;;;5105129;28;20063;-77
2022/12/07 10:23:38;;;;;;;11.52;2.08;;;;;;;;;;5109047;28;20051;-77
2022/12/07 10:26:24;;;;;;;12.25;5.07;;;;;;;;;;5090047;28;20056;-77
2022/12/07 10:28:51;;;;;;;10.52;2.22;;;;;;;;;;5088452;28;20141;-77
2022/12/07 10:31:19;;;;;;;12.25;2.50;;;;;;;;;;5099825;28;20877;-77
2022/12/07 10:33:52;;;;;;;10.10;2.40;;;;;;;;;;5072263;28;20048;-77
2022/12/07 10:36:20;;;;;;;11.88;2.03;;;;;;;;;;5103666;28;20059;-77
2022/12/07 10:38:58;;;;;;;8.95;2.50;;;;;;;;;;5101002;27;20052;-78
2022/12/07 10:41:25;;;;;;;5.78;2.10;;;;;;;;;;5104221;28;20079;-77
2022/12/07 10:43:53;;;;;;;6.45;2.15;;;;;;;;;;5108579;28;20056;-77
2022/12/07 10:46:20;;;;;;;10.48;2.45;;;;;;;;;;5089932;28;20133;-76
2022/12/07 10:48:49;;;;;;;7.68;2.05;;;;;;;;;;5103784;28;20459;-77
2022/12/07 10:51:16;;;;;;;10.35;2.13;;;;;;;;;;5103386;28;20060;-76
2022/12/07 10:53:58;;;;;;;8.52;2.00;;;;;;;;;;5088016;28;20135;-77
2022/12/07 10:56:31;;;;;;;8.25;2.65;;;;;;;;;;5086669;28;20139;-76
2022/12/07 10:59:21;;;;;;;9.00;2.33;;;;;;;;;;5106027;28;20052;-76
2022/12/07 11:01:52;;;;;;;6.70;2.88;;;;;;;;;;5089075;28;20052;-76
2022/12/07 11:04:18;;;;;;;7.50;2.00;;;;;;;;;;5105020;28;20163;-76
2022/12/07 11:06:51;;;;;;;7.25;2.38;;;;;;;;;;5104205;28;20062;-76
2022/12/07 11:09:43;;;;;;;8.25;2.20;;;;;;;;;;5103724;28;20063;-76
2022/12/07 11:12:45;;;;;;;8.30;1.88;;;;;;;;;;5076015;28;20504;-76
2022/12/07 11:15:11;;;;;;;6.05;1.50;;;;;;;;;;5095667;28;20156;-76
2022/12/07 11:17:38;;;;;;;9.70;2.10;;;;;;;;;;5097900;27;20148;-76
2022/12/07 11:20:29;;;;;;;4.57;1.48;;;;;;;;;;5106179;28;20060;-76
2022/12/07 11:23:19;;;;;;;8.10;1.50;;;;;;;;;;5078050;28;20052;-76
2022/12/07 11:25:51;;;;;;;8.65;1.55;;;;;;;;;;5079429;28;20145;-76
2022/12/07 11:28:21;;;;;;;6.88;1.75;;;;;;;;;;5084574;28;20507;-76
2022/12/07 11:31:02;;;;;;;5.95;1.42;;;;;;;;;;5079739;28;20052;-77
2022/12/07 11:33:45;;;;;;;5.93;1.58;;;;;;;;;;5088576;28;20190;-76
2022/12/07 11:36:30;;;;;;;5.50;1.40;;;;;;;;;;5092137;28;20055;-76
2022/12/07 11:39:02;;;;;;;6.05;1.33;;;;;;;;;;5103845;28;20044;-76
2022/12/07 11:41:30;;;;;;;10.95;1.92;;;;;;;;;;5106896;28;20055;-76
2022/12/07 11:44:07;;;;;;;7.57;1.70;;;;;;;;;;5088956;28;20106;-76
2022/12/07 11:46:42;;;;;;;5.05;1.52;;;;;;;;;;5096409;28;20059;-76
2022/12/07 11:49:21;;;;;;;7.97;1.75;;;;;;;;;;5107105;28;20139;-76
2022/12/07 11:51:50;;;;;;;9.38;2.22;;;;;;;;;;5108363;28;20060;-76
2022/12/07 11:54:19;;;;;;;7.20;1.63;;;;;;;;;;5107387;28;20082;-76
2022/12/07 11:56:47;;;;;;;7.28;1.90;;;;;;;;;;5070309;28;20486;-76
2022/12/07 11:59:17;;;;;;;5.50;1.77;;;;;;;;;;5096227;28;20052;-76
2022/12/07 12:02:00;;;;;;;8.52;1.60;;;;;;;;;;5097405;28;20059;-76
2022/12/07 12:04:29;;;;;;;6.07;1.80;;;;;;;;;;5098194;28;20048;-76
2022/12/07 12:06:55;;;;;;;6.90;1.70;;;;;;;;;;5096575;28;20051;-76
2022/12/07 12:09:22;;;;;;;4.85;1.90;;;;;;;;;;5107745;28;20418;-76
2022/12/07 12:12:27;;;;;;;6.32;1.38;;;;;;;;;;5102635;27;20765;-76
2022/12/07 12:15:25;;;;;;;7.35;1.10;;;;;;;;;;5105234;28;20048;-76
2022/12/07 12:17:55;;;;;;;3.67;0.90;;;;;;;;;;5071154;28;20128;-76
2022/12/07 12:21:00;;;;;;;7.05;1.20;;;;;;;;;;5106045;28;20056;-76
2022/12/07 12:23:39;;;;;;;9.82;1.20;;;;;;;;;;4986344;28;20078;-78
2022/12/07 12:26:07;;;;;;;4.05;0.70;;;;;;;;;;4994382;28;20062;-78
2022/12/07 12:28:50;;;;;;;5.88;1.27;;;;;;;;;;5026935;28;21329;-77
2022/12/07 12:31:19;;;;;;;5.88;1.48;;;;;;;;;;5088641;28;20051;-77
2022/12/07 12:33:48;;;;;;;5.50;1.15;;;;;;;;;;5099922;28;20085;-77
2022/12/07 12:36:17;;;;;;;6.43;1.00;;;;;;;;;;5100447;28;20149;-77
2022/12/07 12:38:47;;;;;;;6.95;1.40;;;;;;;;;;5092540;28;20569;-77
2022/12/07 12:41:33;;;;;;;8.27;1.50;;;;;;;;;;5092350;28;20612;-77
2022/12/07 12:43:59;;;;;;;3.80;1.10;;;;;;;;;;5090237;28;20051;-77
2022/12/07 12:46:29;;;;;;;5.38;1.27;;;;;;;;;;5072670;28;20048;-77
2022/12/07 12:49:14;;;;;;;7.75;1.35;;;;;;;;;;5101197;28;20075;-78
2022/12/07 12:51:41;;;;;;;6.38;1.15;;;;;;;;;;5090608;28;20060;-78
2022/12/07 12:54:13;;;;;;;6.60;1.27;;;;;;;;;;5091031;28;20499;-77
2022/12/07 12:56:48;;;;;;;7.55;1.35;;;;;;;;;;5104158;28;20050;-77
2022/12/07 12:59:20;;;;;;;8.68;1.30;;;;;;;;;;5093096;28;20155;-77
2022/12/07 13:01:48;;;;;;;7.40;2.10;;;;;;;;;;5086946;27;20175;-78
2022/12/07 13:04:38;;;;;;;7.45;1.90;;;;;;;;;;5097705;27;20048;-77
2022/12/07 13:07:04;;;;;;;9.50;1.80;;;;;;;;;;5048326;28;20056;-77
2022/12/07 13:09:34;;;;;;;6.43;2.00;;;;;;;;;;5070763;28;20052;-77
2022/12/07 13:12:20;;;;;;;8.00;1.60;;;;;;;;;;5080862;28;20067;-77
2022/12/07 13:14:54;;;;;;;7.70;1.52;;;;;;;;;;5088016;28;20057;-78
2022/12/07 13:17:30;;;;;;;2.67;0.52;;;;;;;;;;5080769;28;20056;-77
2022/12/07 13:19:58;;;;;;;3.05;1.05;;;;;;;;;;5102640;28;20052;-77
2022/12/07 13:22:30;;;;;;;5.70;0.68;;;;;;;;;;5080477;28;20502;-77
2022/12/07 13:25:03;;;;;;;3.28;0.90;;;;;;;;;;5154927;22;20067;-77
2022/12/07 13:27:32;;;;;;;7.18;1.42;;;;;;;;;;5130297;27;20150;-77
2022/12/07 13:29:58;;;;;;;4.10;0.93;;;;;;;;;;5127738;27;20051;-77
2022/12/07 13:32:29;;;;;;;4.95;0.90;;;;;;;;;;5128485;27;20140;-77
2022/12/07 13:34:55;;;;;;;4.65;0.80;;;;;;;;;;5106032;28;20102;-77
2022/12/07 13:37:29;;;;;;;3.53;1.30;;;;;;;;;;5108304;28;20662;-77
2022/12/07 13:40:20;;;;;;;5.65;2.00;;;;;;;;;;5093378;28;20113;-77
2022/12/07 13:42:46;;;;;;;3.97;0.98;;;;;;;;;;5098869;28;20063;-77
2022/12/07 13:45:48;;;;;;;6.35;1.13;;;;;;;;;;5108086;27;20059;-77
2022/12/07 13:48:35;;;;;;;5.35;1.20;;;;;;;;;;5060611;28;20056;-77
2022/12/07 13:51:02;;;;;;;9.30;1.70;;;;;;;;;;5110009;28;20135;-77
2022/12/07 13:53:30;;;;;;;5.63;1.20;;;;;;;;;;5106643;28;20494;-77
2022/12/07 13:55:58;;;;;;;7.25;1.77;;;;;;;;;;5107426;27;20075;-77
2022/12/07 13:58:25;;;;;;;6.97;1.80;;;;;;;;;;5108371;27;20056;-77
2022/12/07 14:00:53;;;;;;;6.50;1.38;;;;;;;;;;5105675;28;20062;-77
2022/12/07 14:03:41;;;;;;;7.68;1.30;;;;;;;;;;5108612;28;20635;-77
2022/12/07 14:06:26;;;;;;;7.10;1.40;;;;;;;;;;5300420;22;20044;-77
2022/12/07 14:09:06;;;;;;;5.93;1.50;;;;;;;;;;5110063;28;20063;-77
2022/12/07 14:11:32;;;;;;;6.47;1.30;;;;;;;;;;5101467;27;20056;-77
2022/12/07 14:14:00;;;;;;;9.82;1.48;;;;;;;;;;5107061;27;20057;-77
2022/12/07 14:16:28;;;;;;;6.53;1.33;;;;;;;;;;5106046;27;20056;-77
2022/12/07 14:18:56;;;;;;;5.50;1.50;;;;;;;;;;5082476;28;20052;-77
2022/12/07 14:21:24;;;;;;;6.40;1.83;;;;;;;;;;5085777;28;20127;-77
2022/12/07 14:24:09;;;;;;;7.38;1.80;;;;;;;;;;5102373;27;20643;-77
2022/12/07 14:26:36;;;;;;;5.50;1.30;;;;;;;;;;5091516;28;20048;-77
2022/12/07 14:29:22;;;;;;;8.20;1.60;;;;;;;;;;5083946;28;20060;-77
2022/12/07 14:31:48;;;;;;;9.50;1.63;;;;;;;;;;5086945;28;20071;-78
2022/12/07 14:34:15;;;;;;;5.55;1.25;;;;;;;;;;5108735;27;20052;-77
2022/12/07 14:36:41;;;;;;;9.25;1.60;;;;;;;;;;5093250;27;20064;-77
2022/12/07 14:39:07;;;;;;;4.95;1.50;;;;;;;;;;5084065;27;20086;-77
2022/12/07 14:41:50;;;;;;;6.90;1.30;;;;;;;;;;5098335;27;20056;-77
2022/12/07 14:44:21;;;;;;;5.80;1.20;;;;;;;;;;5105328;27;20696;-77
2022/12/07 14:46:53;;;;;;;5.05;1.48;;;;;;;;;;5103217;27;20133;-77
2022/12/07 14:49:40;;;;;;;8.88;1.55;;;;;;;;;;5084922;28;20529;-77
2022/12/07 14:52:10;;;;;;;5.82;1.02;;;;;;;;;;5086900;28;20056;-77
2022/12/07 14:54:56;;;;;;;5.57;1.20;;;;;;;;;;5073355;28;20064;-77
2022/12/07 14:57:23;;;;;;;6.78;0.95;;;;;;;;;;5073831;27;20059;-77
2022/12/07 14:59:49;;;;;;;8.15;1.95;;;;;;;;;;5092413;27;20483;-77